createdAt,value
2017-06-11T00:00:08.731Z,1013.77
2017-06-11T00:00:49.275Z,1013.75
2017-06-11T00:01:29.804Z,1013.77
2017-06-11T00:02:10.392Z,1013.78
2017-06-11T00:02:50.927Z,1013.76
2017-06-11T00:03:31.474Z,1013.74
2017-06-11T00:04:12.018Z,1013.72
2017-06-11T00:04:52.555Z,1013.72
2017-06-11T00:05:33.090Z,1013.69
2017-06-11T00:06:13.635Z,1013.68
2017-06-11T00:06:54.169Z,1013.7
2017-06-11T00:07:34.723Z,1013.71
2017-06-11T00:08:15.254Z,1013.71
2017-06-11T00:08:55.799Z,1013.73
2017-06-11T00:09:36.338Z,1013.75
2017-06-11T00:10:16.880Z,1013.79
2017-06-11T00:10:57.421Z,1013.83
2017-06-11T00:11:37.961Z,1013.83
2017-06-11T00:12:18.508Z,1013.83
2017-06-11T00:12:59.045Z,1013.89
2017-06-11T00:13:39.583Z,1013.88
2017-06-11T00:14:20.123Z,1013.84
2017-06-11T00:15:00.674Z,1013.86
2017-06-11T00:15:41.207Z,1013.85
2017-06-11T00:16:21.750Z,1013.89
2017-06-11T00:17:02.290Z,1013.9
2017-06-11T00:17:42.832Z,1013.9
2017-06-11T00:18:23.443Z,1013.91
2017-06-11T00:19:03.981Z,1013.89
2017-06-11T00:19:44.519Z,1013.92
2017-06-11T00:20:25.063Z,1013.93
2017-06-11T00:21:05.611Z,1013.92
2017-06-11T00:21:46.164Z,1013.89
2017-06-11T00:22:26.701Z,1013.89
2017-06-11T00:23:07.234Z,1013.85
2017-06-11T00:23:47.782Z,1013.89
2017-06-11T00:24:28.317Z,1013.86
2017-06-11T00:25:08.858Z,1013.88
2017-06-11T00:25:49.398Z,1013.83
2017-06-11T00:26:29.937Z,1013.84
2017-06-11T00:27:10.479Z,1013.85
2017-06-11T00:27:51.026Z,1013.82
2017-06-11T00:28:31.570Z,1013.79
2017-06-11T00:29:12.123Z,1013.78
2017-06-11T00:29:52.673Z,1013.77
2017-06-11T00:30:33.229Z,1013.77
2017-06-11T00:31:13.785Z,1013.76
2017-06-11T00:31:54.331Z,1013.76
2017-06-11T00:32:34.876Z,1013.78
2017-06-11T00:33:15.414Z,1013.75
2017-06-11T00:33:55.959Z,1013.76
2017-06-11T00:34:36.504Z,1013.76
2017-06-11T00:35:17.033Z,1013.78
2017-06-11T00:35:57.573Z,1013.77
2017-06-11T00:36:38.116Z,1013.78
2017-06-11T00:37:18.652Z,1013.79
2017-06-11T00:37:59.191Z,1013.79
2017-06-11T00:38:39.735Z,1013.83
2017-06-11T00:39:20.278Z,1013.79
2017-06-11T00:40:00.834Z,1013.8
2017-06-11T00:40:41.370Z,1013.82
2017-06-11T00:41:21.912Z,1013.8
2017-06-11T00:42:02.447Z,1013.81
2017-06-11T00:42:42.983Z,1013.79
2017-06-11T00:43:23.529Z,1013.8
2017-06-11T00:44:04.136Z,1013.79
2017-06-11T00:44:44.687Z,1013.8
2017-06-11T00:45:25.213Z,1013.79
2017-06-11T00:46:05.757Z,1013.81
2017-06-11T00:46:46.298Z,1013.79
2017-06-11T00:47:26.841Z,1013.76
2017-06-11T00:48:07.379Z,1013.8
2017-06-11T00:48:47.916Z,1013.78
2017-06-11T00:49:28.455Z,1013.78
2017-06-11T00:50:08.998Z,1013.77
2017-06-11T00:50:49.538Z,1013.77
2017-06-11T00:51:30.079Z,1013.8
2017-06-11T00:52:10.617Z,1013.8
2017-06-11T00:52:51.138Z,1013.78
2017-06-11T00:53:31.679Z,1013.79
2017-06-11T00:54:12.232Z,1013.78
2017-06-11T00:54:52.763Z,1013.76
2017-06-11T00:55:33.308Z,1013.71
2017-06-11T00:56:13.852Z,1013.69
2017-06-11T00:56:54.398Z,1013.72
2017-06-11T00:57:34.942Z,1013.75
2017-06-11T00:58:15.486Z,1013.73
2017-06-11T00:58:56.029Z,1013.73
2017-06-11T00:59:36.573Z,1013.71
2017-06-11T01:00:17.108Z,1013.72
2017-06-11T01:00:57.643Z,1013.74
2017-06-11T01:01:38.167Z,1013.78
2017-06-11T01:02:18.709Z,1013.75
2017-06-11T01:02:59.254Z,1013.74
2017-06-11T01:03:39.798Z,1013.72
2017-06-11T01:04:20.337Z,1013.75
2017-06-11T01:05:00.885Z,1013.76
2017-06-11T01:05:41.439Z,1013.79
2017-06-11T01:06:21.987Z,1013.73
2017-06-11T01:07:02.530Z,1013.73
2017-06-11T01:07:43.069Z,1013.71
2017-06-11T01:08:23.606Z,1013.73
2017-06-11T01:09:04.149Z,1013.76
2017-06-11T01:09:44.683Z,1013.71
2017-06-11T01:10:25.223Z,1013.76
2017-06-11T01:11:05.767Z,1013.76
2017-06-11T01:11:46.325Z,1013.73
2017-06-11T01:12:26.874Z,1013.73
2017-06-11T01:13:07.449Z,1013.76
2017-06-11T01:13:47.967Z,1013.74
2017-06-11T01:14:28.518Z,1013.77
2017-06-11T01:15:09.063Z,1013.76
2017-06-11T01:15:49.601Z,1013.76
2017-06-11T01:16:30.144Z,1013.76
2017-06-11T01:17:10.689Z,1013.73
2017-06-11T01:17:51.208Z,1013.77
2017-06-11T01:18:31.746Z,1013.76
2017-06-11T01:19:12.298Z,1013.73
2017-06-11T01:19:52.813Z,1013.71
2017-06-11T01:20:33.367Z,1013.72
2017-06-11T01:21:13.912Z,1013.71
2017-06-11T01:21:54.455Z,1013.69
2017-06-11T01:22:34.984Z,1013.67
2017-06-11T01:23:15.521Z,1013.66
2017-06-11T01:23:56.059Z,1013.63
2017-06-11T01:24:36.608Z,1013.62
2017-06-11T01:25:17.142Z,1013.62
2017-06-11T01:25:57.687Z,1013.61
2017-06-11T01:26:38.233Z,1013.63
2017-06-11T01:27:18.785Z,1013.61
2017-06-11T01:27:59.313Z,1013.6
2017-06-11T01:28:39.860Z,1013.62
2017-06-11T01:29:20.408Z,1013.6
2017-06-11T01:30:00.955Z,1013.6
2017-06-11T01:30:41.490Z,1013.61
2017-06-11T01:31:22.031Z,1013.59
2017-06-11T01:32:02.571Z,1013.59
2017-06-11T01:32:43.108Z,1013.62
2017-06-11T01:33:23.649Z,1013.6
2017-06-11T01:34:04.192Z,1013.62
2017-06-11T01:34:44.734Z,1013.59
2017-06-11T01:35:25.276Z,1013.64
2017-06-11T01:36:05.821Z,1013.61
2017-06-11T01:36:46.367Z,1013.6
2017-06-11T01:37:26.911Z,1013.65
2017-06-11T01:38:07.445Z,1013.62
2017-06-11T01:38:47.983Z,1013.64
2017-06-11T01:39:28.521Z,1013.62
2017-06-11T01:40:09.091Z,1013.62
2017-06-11T01:40:49.634Z,1013.6
2017-06-11T01:41:30.199Z,1013.59
2017-06-11T01:42:10.707Z,1013.59
2017-06-11T01:42:51.247Z,1013.56
2017-06-11T01:43:31.793Z,1013.58
2017-06-11T01:44:12.332Z,1013.57
2017-06-11T01:44:52.878Z,1013.58
2017-06-11T01:45:33.420Z,1013.6
2017-06-11T01:46:13.961Z,1013.55
2017-06-11T01:46:54.521Z,1013.56
2017-06-11T01:47:35.070Z,1013.59
2017-06-11T01:48:15.614Z,1013.58
2017-06-11T01:48:56.160Z,1013.59
2017-06-11T01:49:36.687Z,1013.59
2017-06-11T01:50:17.219Z,1013.57
2017-06-11T01:50:57.764Z,1013.58
2017-06-11T01:51:38.309Z,1013.55
2017-06-11T01:52:18.854Z,1013.56
2017-06-11T01:52:59.396Z,1013.52
2017-06-11T01:53:39.943Z,1013.53
2017-06-11T01:54:20.488Z,1013.53
2017-06-11T01:55:01.030Z,1013.53
2017-06-11T01:55:41.561Z,1013.54
2017-06-11T01:56:22.105Z,1013.56
2017-06-11T01:57:02.649Z,1013.53
2017-06-11T01:57:43.174Z,1013.6
2017-06-11T01:58:23.716Z,1013.58
2017-06-11T01:59:04.265Z,1013.57
2017-06-11T01:59:44.808Z,1013.57
2017-06-11T02:00:25.366Z,1013.57
2017-06-11T02:01:05.897Z,1013.57
2017-06-11T02:01:46.438Z,1013.51
2017-06-11T02:02:26.986Z,1013.53
2017-06-11T02:03:07.516Z,1013.54
2017-06-11T02:03:48.061Z,1013.52
2017-06-11T02:04:28.612Z,1013.52
2017-06-11T02:05:09.151Z,1013.52
2017-06-11T02:05:49.690Z,1013.54
2017-06-11T02:06:30.236Z,1013.54
2017-06-11T02:07:10.764Z,1013.56
2017-06-11T02:07:51.302Z,1013.52
2017-06-11T02:08:31.844Z,1013.5
2017-06-11T02:09:12.390Z,1013.53
2017-06-11T02:09:52.936Z,1013.54
2017-06-11T02:10:33.470Z,1013.51
2017-06-11T02:11:14.019Z,1013.56
2017-06-11T02:11:54.561Z,1013.59
2017-06-11T02:12:35.098Z,1013.59
2017-06-11T02:13:15.639Z,1013.59
2017-06-11T02:13:56.180Z,1013.59
2017-06-11T02:14:36.760Z,1013.56
2017-06-11T02:15:17.291Z,1013.58
2017-06-11T02:15:57.822Z,1013.55
2017-06-11T02:16:38.362Z,1013.54
2017-06-11T02:17:18.891Z,1013.51
2017-06-11T02:17:59.418Z,1013.53
2017-06-11T02:18:39.957Z,1013.52
2017-06-11T02:19:20.485Z,1013.48
2017-06-11T02:20:01.033Z,1013.49
2017-06-11T02:20:41.573Z,1013.51
2017-06-11T02:21:22.110Z,1013.51
2017-06-11T02:22:02.635Z,1013.49
2017-06-11T02:22:43.174Z,1013.48
2017-06-11T02:23:23.707Z,1013.47
2017-06-11T02:24:04.247Z,1013.46
2017-06-11T02:24:44.789Z,1013.47
2017-06-11T02:25:25.319Z,1013.48
2017-06-11T02:26:05.862Z,1013.46
2017-06-11T02:26:46.410Z,1013.5
2017-06-11T02:27:26.948Z,1013.5
2017-06-11T02:28:07.493Z,1013.51
2017-06-11T02:28:48.032Z,1013.5
2017-06-11T02:29:28.572Z,1013.51
2017-06-11T02:30:09.100Z,1013.5
2017-06-11T02:30:49.645Z,1013.5
2017-06-11T02:31:30.186Z,1013.48
2017-06-11T02:32:10.727Z,1013.47
2017-06-11T02:32:51.291Z,1013.45
2017-06-11T02:33:31.818Z,1013.48
2017-06-11T02:34:12.369Z,1013.43
2017-06-11T02:34:52.916Z,1013.43
2017-06-11T02:35:33.448Z,1013.44
2017-06-11T02:36:14.000Z,1013.44
2017-06-11T02:36:54.542Z,1013.42
2017-06-11T02:37:35.083Z,1013.42
2017-06-11T02:38:15.630Z,1013.37
2017-06-11T02:38:56.175Z,1013.42
2017-06-11T02:39:36.707Z,1013.42
2017-06-11T02:40:17.252Z,1013.44
2017-06-11T02:40:57.788Z,1013.43
2017-06-11T02:41:38.329Z,1013.43
2017-06-11T02:42:18.868Z,1013.4
2017-06-11T02:42:59.423Z,1013.4
2017-06-11T02:43:39.961Z,1013.36
2017-06-11T02:44:20.501Z,1013.38
2017-06-11T02:45:01.046Z,1013.41
2017-06-11T02:45:41.581Z,1013.39
2017-06-11T02:46:22.124Z,1013.38
2017-06-11T02:47:02.663Z,1013.35
2017-06-11T02:47:43.214Z,1013.37
2017-06-11T02:48:23.749Z,1013.32
2017-06-11T02:49:04.294Z,1013.35
2017-06-11T02:49:44.840Z,1013.32
2017-06-11T02:50:25.384Z,1013.31
2017-06-11T02:51:05.929Z,1013.3
2017-06-11T02:51:46.467Z,1013.35
2017-06-11T02:52:27.009Z,1013.34
2017-06-11T02:53:07.540Z,1013.35
2017-06-11T02:53:48.087Z,1013.35
2017-06-11T02:54:28.643Z,1013.35
2017-06-11T02:55:09.181Z,1013.34
2017-06-11T02:55:49.718Z,1013.34
2017-06-11T02:56:30.260Z,1013.35
2017-06-11T02:57:10.790Z,1013.33
2017-06-11T02:57:51.327Z,1013.32
2017-06-11T02:58:31.865Z,1013.35
2017-06-11T02:59:12.409Z,1013.35
2017-06-11T02:59:52.946Z,1013.35
2017-06-11T03:00:33.487Z,1013.33
2017-06-11T03:01:14.029Z,1013.36
2017-06-11T03:01:54.562Z,1013.32
2017-06-11T03:02:35.116Z,1013.35
2017-06-11T03:03:15.653Z,1013.34
2017-06-11T03:03:56.203Z,1013.33
2017-06-11T03:04:36.735Z,1013.32
2017-06-11T03:05:17.280Z,1013.33
2017-06-11T03:05:57.817Z,1013.33
2017-06-11T03:06:38.357Z,1013.38
2017-06-11T03:07:18.889Z,1013.36
2017-06-11T03:07:59.427Z,1013.36
2017-06-11T03:08:39.973Z,1013.4
2017-06-11T03:09:20.520Z,1013.39
2017-06-11T03:10:01.060Z,1013.38
2017-06-11T03:10:41.602Z,1013.4
2017-06-11T03:11:22.131Z,1013.39
2017-06-11T03:12:02.675Z,1013.36
2017-06-11T03:12:43.206Z,1013.36
2017-06-11T03:13:23.739Z,1013.35
2017-06-11T03:14:04.286Z,1013.37
2017-06-11T03:14:44.826Z,1013.36
2017-06-11T03:15:25.367Z,1013.33
2017-06-11T03:16:05.909Z,1013.34
2017-06-11T03:16:46.455Z,1013.34
2017-06-11T03:17:26.987Z,1013.32
2017-06-11T03:18:07.535Z,1013.32
2017-06-11T03:18:48.084Z,1013.29
2017-06-11T03:19:28.628Z,1013.3
2017-06-11T03:20:09.165Z,1013.31
2017-06-11T03:20:49.717Z,1013.31
2017-06-11T03:21:30.248Z,1013.31
2017-06-11T03:22:10.810Z,1013.33
2017-06-11T03:22:51.349Z,1013.32
2017-06-11T03:23:31.889Z,1013.33
2017-06-11T03:24:12.429Z,1013.32
2017-06-11T03:24:52.969Z,1013.33
2017-06-11T03:25:33.510Z,1013.37
2017-06-11T03:26:14.051Z,1013.37
2017-06-11T03:26:54.571Z,1013.36
2017-06-11T03:27:35.122Z,1013.38
2017-06-11T03:28:15.658Z,1013.38
2017-06-11T03:28:56.200Z,1013.39
2017-06-11T03:29:36.734Z,1013.42
2017-06-11T03:30:17.279Z,1013.37
2017-06-11T03:30:57.823Z,1013.37
2017-06-11T03:31:38.365Z,1013.34
2017-06-11T03:32:18.898Z,1013.38
2017-06-11T03:32:59.441Z,1013.33
2017-06-11T03:33:39.980Z,1013.32
2017-06-11T03:34:20.514Z,1013.34
2017-06-11T03:35:01.062Z,1013.35
2017-06-11T03:35:41.598Z,1013.35
2017-06-11T03:36:22.166Z,1013.35
2017-06-11T03:37:02.693Z,1013.38
2017-06-11T03:37:43.238Z,1013.38
2017-06-11T03:38:23.777Z,1013.39
2017-06-11T03:39:04.315Z,1013.4
2017-06-11T03:39:44.853Z,1013.38
2017-06-11T03:40:25.398Z,1013.37
2017-06-11T03:41:05.935Z,1013.36
2017-06-11T03:41:46.479Z,1013.35
2017-06-11T03:42:27.023Z,1013.34
2017-06-11T03:43:07.566Z,1013.32
2017-06-11T03:43:48.108Z,1013.33
2017-06-11T03:44:28.655Z,1013.34
2017-06-11T03:45:09.193Z,1013.34
2017-06-11T03:45:49.738Z,1013.33
2017-06-11T03:46:30.265Z,1013.33
2017-06-11T03:47:10.812Z,1013.3
2017-06-11T03:47:51.355Z,1013.29
2017-06-11T03:48:31.885Z,1013.33
2017-06-11T03:49:12.429Z,1013.3
2017-06-11T03:49:52.977Z,1013.32
2017-06-11T03:50:33.518Z,1013.32
2017-06-11T03:51:14.057Z,1013.28
2017-06-11T03:51:54.592Z,1013.32
2017-06-11T03:52:35.122Z,1013.29
2017-06-11T03:53:15.653Z,1013.3
2017-06-11T03:53:56.190Z,1013.28
2017-06-11T03:54:36.733Z,1013.3
2017-06-11T03:55:17.282Z,1013.3
2017-06-11T03:55:57.827Z,1013.3
2017-06-11T03:56:38.372Z,1013.29
2017-06-11T03:57:18.922Z,1013.3
2017-06-11T03:57:59.461Z,1013.33
2017-06-11T03:58:39.990Z,1013.31
2017-06-11T03:59:20.524Z,1013.33
2017-06-11T04:00:01.069Z,1013.34
2017-06-11T04:00:41.620Z,1013.35
2017-06-11T04:01:22.155Z,1013.35
2017-06-11T04:02:02.688Z,1013.33
2017-06-11T04:02:43.229Z,1013.35
2017-06-11T04:03:23.773Z,1013.34
2017-06-11T04:04:04.317Z,1013.3
2017-06-11T04:04:44.870Z,1013.33
2017-06-11T04:05:25.413Z,1013.36
2017-06-11T04:06:05.959Z,1013.36
2017-06-11T04:06:46.518Z,1013.32
2017-06-11T04:07:27.061Z,1013.35
2017-06-11T04:08:07.599Z,1013.32
2017-06-11T04:08:48.137Z,1013.32
2017-06-11T04:09:28.691Z,1013.38
2017-06-11T04:10:09.221Z,1013.36
2017-06-11T04:10:49.756Z,1013.34
2017-06-11T04:11:30.299Z,1013.36
2017-06-11T04:12:10.844Z,1013.33
2017-06-11T04:12:51.382Z,1013.33
2017-06-11T04:13:31.927Z,1013.32
2017-06-11T04:14:12.477Z,1013.33
2017-06-11T04:14:53.024Z,1013.33
2017-06-11T04:15:33.568Z,1013.34
2017-06-11T04:16:14.105Z,1013.29
2017-06-11T04:16:54.652Z,1013.3
2017-06-11T04:17:35.186Z,1013.29
2017-06-11T04:18:15.728Z,1013.31
2017-06-11T04:18:56.274Z,1013.3
2017-06-11T04:19:36.816Z,1013.3
2017-06-11T04:20:17.355Z,1013.27
2017-06-11T04:20:57.892Z,1013.24
2017-06-11T04:21:38.436Z,1013.24
2017-06-11T04:22:18.981Z,1013.24
2017-06-11T04:22:59.522Z,1013.19
2017-06-11T04:23:40.065Z,1013.22
2017-06-11T04:24:20.598Z,1013.24
2017-06-11T04:25:01.131Z,1013.22
2017-06-11T04:25:41.679Z,1013.23
2017-06-11T04:26:22.213Z,1013.23
2017-06-11T04:27:02.808Z,1013.25
2017-06-11T04:27:43.333Z,1013.23
2017-06-11T04:28:23.866Z,1013.24
2017-06-11T04:29:04.412Z,1013.23
2017-06-11T04:29:44.956Z,1013.27
2017-06-11T04:30:25.498Z,1013.26
2017-06-11T04:31:06.044Z,1013.29
2017-06-11T04:31:46.587Z,1013.28
2017-06-11T04:32:27.121Z,1013.29
2017-06-11T04:33:07.661Z,1013.27
2017-06-11T04:33:48.208Z,1013.27
2017-06-11T04:34:28.747Z,1013.29
2017-06-11T04:35:09.288Z,1013.33
2017-06-11T04:35:49.830Z,1013.31
2017-06-11T04:36:30.372Z,1013.28
2017-06-11T04:37:10.926Z,1013.29
2017-06-11T04:37:51.470Z,1013.31
2017-06-11T04:38:32.014Z,1013.31
2017-06-11T04:39:12.555Z,1013.3
2017-06-11T04:39:53.102Z,1013.34
2017-06-11T04:40:33.654Z,1013.31
2017-06-11T04:41:14.197Z,1013.28
2017-06-11T04:41:54.756Z,1013.31
2017-06-11T04:42:35.298Z,1013.31
2017-06-11T04:43:15.822Z,1013.3
2017-06-11T04:43:56.370Z,1013.29
2017-06-11T04:44:36.907Z,1013.27
2017-06-11T04:45:17.440Z,1013.23
2017-06-11T04:45:57.980Z,1013.25
2017-06-11T04:46:38.518Z,1013.21
2017-06-11T04:47:19.060Z,1013.18
2017-06-11T04:47:59.610Z,1013.2
2017-06-11T04:48:40.151Z,1013.17
2017-06-11T04:49:20.695Z,1013.21
2017-06-11T04:50:01.225Z,1013.26
2017-06-11T04:50:41.760Z,1013.24
2017-06-11T04:51:22.294Z,1013.23
2017-06-11T04:52:02.840Z,1013.2
2017-06-11T04:52:43.395Z,1013.23
2017-06-11T04:53:23.938Z,1013.23
2017-06-11T04:54:04.476Z,1013.22
2017-06-11T04:54:45.013Z,1013.25
2017-06-11T04:55:25.591Z,1013.24
2017-06-11T04:56:06.142Z,1013.25
2017-06-11T04:56:46.694Z,1013.26
2017-06-11T04:57:27.264Z,1013.25
2017-06-11T04:58:07.803Z,1013.24
2017-06-11T04:58:48.349Z,1013.27
2017-06-11T04:59:28.897Z,1013.24
2017-06-11T05:00:09.473Z,1013.27
2017-06-11T05:00:50.033Z,1013.28
2017-06-11T05:01:30.573Z,1013.27
2017-06-11T05:02:11.120Z,1013.26
2017-06-11T05:02:51.672Z,1013.23
2017-06-11T05:03:32.213Z,1013.24
2017-06-11T05:04:12.753Z,1013.25
2017-06-11T05:04:53.298Z,1013.27
2017-06-11T05:05:33.846Z,1013.25
2017-06-11T05:06:14.395Z,1013.25
2017-06-11T05:06:54.947Z,1013.24
2017-06-11T05:07:35.490Z,1013.22
2017-06-11T05:08:16.035Z,1013.2
2017-06-11T05:08:56.581Z,1013.21
2017-06-11T05:09:37.125Z,1013.2
2017-06-11T05:10:17.676Z,1013.21
2017-06-11T05:10:58.217Z,1013.16
2017-06-11T05:11:39.259Z,1013.21
2017-06-11T05:12:19.795Z,1013.2
2017-06-11T05:13:00.343Z,1013.21
2017-06-11T05:13:40.881Z,1013.18
2017-06-11T05:14:21.425Z,1013.18
2017-06-11T05:15:01.965Z,1013.15
2017-06-11T05:15:42.512Z,1013.15
2017-06-11T05:16:23.054Z,1013.14
2017-06-11T05:17:03.599Z,1013.1
2017-06-11T05:17:44.124Z,1013.12
2017-06-11T05:18:24.653Z,1013.09
2017-06-11T05:19:05.198Z,1013.08
2017-06-11T05:19:45.741Z,1013.08
2017-06-11T05:20:26.285Z,1013.06
2017-06-11T05:21:06.842Z,1013.08
2017-06-11T05:21:47.401Z,1013.07
2017-06-11T05:22:27.927Z,1013.05
2017-06-11T05:23:08.471Z,1013.04
2017-06-11T05:23:49.017Z,1013.03
2017-06-11T05:24:29.563Z,1013.04
2017-06-11T05:25:10.104Z,1013.08
2017-06-11T05:25:50.653Z,1013.06
2017-06-11T05:26:31.181Z,1013.05
2017-06-11T05:27:11.726Z,1013.04
2017-06-11T05:27:52.266Z,1013.09
2017-06-11T05:28:32.810Z,1013.05
2017-06-11T05:29:13.346Z,1013.06
2017-06-11T05:29:53.896Z,1013.06
2017-06-11T05:30:34.442Z,1013.07
2017-06-11T05:31:14.987Z,1013.09
2017-06-11T05:31:55.534Z,1013.06
2017-06-11T05:32:36.079Z,1013.06
2017-06-11T05:33:16.629Z,1013.07
2017-06-11T05:33:57.176Z,1013.05
2017-06-11T05:34:37.724Z,1013.07
2017-06-11T05:35:18.268Z,1013.04
2017-06-11T05:35:58.815Z,1013.06
2017-06-11T05:36:39.356Z,1013.05
2017-06-11T05:37:19.901Z,1013.04
2017-06-11T05:38:00.497Z,1013.09
2017-06-11T05:38:41.094Z,1013.05
2017-06-11T05:39:21.627Z,1013.01
2017-06-11T05:40:02.179Z,1013
2017-06-11T05:40:42.747Z,1013.01
2017-06-11T05:41:23.278Z,1013.02
2017-06-11T05:42:03.829Z,1013.04
2017-06-11T05:42:44.381Z,1013.03
2017-06-11T05:43:24.920Z,1013.04
2017-06-11T05:44:05.465Z,1013.01
2017-06-11T05:44:46.013Z,1013.02
2017-06-11T05:45:26.560Z,1013.01
2017-06-11T05:46:07.105Z,1013.01
2017-06-11T05:46:47.653Z,1013.05
2017-06-11T05:47:28.195Z,1013.05
2017-06-11T05:48:08.723Z,1013.03
2017-06-11T05:48:49.260Z,1012.99
2017-06-11T05:49:29.791Z,1013.01
2017-06-11T05:50:11.452Z,1013
2017-06-11T05:50:53.120Z,1013
2017-06-11T05:51:34.074Z,1013.01
2017-06-11T05:52:14.614Z,1013.01
2017-06-11T05:52:55.160Z,1013
2017-06-11T05:53:35.709Z,1013.03
2017-06-11T05:54:16.304Z,1013.02
2017-06-11T05:54:56.845Z,1013.05
2017-06-11T05:55:37.392Z,1013.1
2017-06-11T05:56:17.932Z,1013.11
2017-06-11T05:56:58.507Z,1013.15
2017-06-11T05:57:39.046Z,1013.15
2017-06-11T05:58:19.591Z,1013.17
2017-06-11T05:59:00.123Z,1013.17
2017-06-11T05:59:40.668Z,1013.18
2017-06-11T06:00:21.227Z,1013.21
2017-06-11T06:01:01.755Z,1013.17
2017-06-11T06:01:42.298Z,1013.16
2017-06-11T06:02:22.843Z,1013.15
2017-06-11T06:03:03.378Z,1013.16
2017-06-11T06:03:44.252Z,1013.16
2017-06-11T06:04:24.778Z,1013.18
2017-06-11T06:05:05.317Z,1013.16
2017-06-11T06:05:45.862Z,1013.17
2017-06-11T06:06:26.408Z,1013.15
2017-06-11T06:07:06.953Z,1013.13
2017-06-11T06:07:47.497Z,1013.17
2017-06-11T06:08:28.050Z,1013.13
2017-06-11T06:09:08.605Z,1013.19
2017-06-11T06:09:49.148Z,1013.18
2017-06-11T06:10:29.690Z,1013.16
2017-06-11T06:11:10.239Z,1013.18
2017-06-11T06:11:50.778Z,1013.15
2017-06-11T06:12:31.307Z,1013.17
2017-06-11T06:13:11.854Z,1013.17
2017-06-11T06:13:52.402Z,1013.13
2017-06-11T06:14:32.935Z,1013.13
2017-06-11T06:15:13.477Z,1013.14
2017-06-11T06:15:54.016Z,1013.12
2017-06-11T06:16:34.565Z,1013.16
2017-06-11T06:17:15.110Z,1013.14
2017-06-11T06:17:55.653Z,1013.12
2017-06-11T06:18:36.299Z,1013.11
2017-06-11T06:19:16.828Z,1013.12
2017-06-11T06:19:57.378Z,1013.14
2017-06-11T06:20:37.909Z,1013.13
2017-06-11T06:21:18.480Z,1013.16
2017-06-11T06:21:58.983Z,1013.16
2017-06-11T06:22:39.531Z,1013.17
2017-06-11T06:23:20.054Z,1013.16
2017-06-11T06:24:00.598Z,1013.17
2017-06-11T06:24:41.136Z,1013.17
2017-06-11T06:25:21.683Z,1013.18
2017-06-11T06:26:02.219Z,1013.14
2017-06-11T06:26:42.772Z,1013.13
2017-06-11T06:27:23.320Z,1013.14
2017-06-11T06:28:03.853Z,1013.1
2017-06-11T06:28:44.392Z,1013.11
2017-06-11T06:29:24.937Z,1013.09
2017-06-11T06:30:05.483Z,1013.08
2017-06-11T06:30:46.102Z,1013.05
2017-06-11T06:31:26.671Z,1013.03
2017-06-11T06:32:07.227Z,1013.06
2017-06-11T06:32:47.771Z,1013.05
2017-06-11T06:33:28.306Z,1013
2017-06-11T06:34:08.847Z,1012.97
2017-06-11T06:34:49.392Z,1012.99
2017-06-11T06:35:29.935Z,1013.01
2017-06-11T06:36:10.481Z,1013
2017-06-11T06:36:51.023Z,1013.01
2017-06-11T06:37:31.572Z,1013
2017-06-11T06:38:12.114Z,1013.01
2017-06-11T06:38:52.712Z,1012.98
2017-06-11T06:39:33.249Z,1012.98
2017-06-11T06:40:13.788Z,1012.96
2017-06-11T06:40:54.334Z,1012.95
2017-06-11T06:41:34.882Z,1012.95
2017-06-11T06:42:15.420Z,1012.89
2017-06-11T06:42:55.970Z,1012.92
2017-06-11T06:43:36.510Z,1012.9
2017-06-11T06:44:17.060Z,1012.91
2017-06-11T06:44:57.600Z,1012.92
2017-06-11T06:45:38.152Z,1012.88
2017-06-11T06:46:18.697Z,1012.89
2017-06-11T06:46:59.240Z,1012.88
2017-06-11T06:47:39.784Z,1012.89
2017-06-11T06:48:20.330Z,1012.87
2017-06-11T06:49:00.876Z,1012.89
2017-06-11T06:49:41.418Z,1012.89
2017-06-11T06:50:21.949Z,1012.89
2017-06-11T06:51:02.498Z,1012.92
2017-06-11T06:51:43.040Z,1012.91
2017-06-11T06:52:23.581Z,1012.95
2017-06-11T06:53:04.129Z,1012.93
2017-06-11T06:53:44.680Z,1012.96
2017-06-11T06:54:25.234Z,1012.95
2017-06-11T06:55:05.786Z,1012.93
2017-06-11T06:55:46.323Z,1012.92
2017-06-11T06:56:26.871Z,1012.89
2017-06-11T06:57:07.419Z,1012.87
2017-06-11T06:57:47.969Z,1012.87
2017-06-11T06:58:28.519Z,1012.86
2017-06-11T06:59:09.069Z,1012.89
2017-06-11T06:59:49.616Z,1012.87
2017-06-11T07:00:30.162Z,1012.86
2017-06-11T07:01:10.714Z,1012.9
2017-06-11T07:01:51.261Z,1012.89
2017-06-11T07:02:31.814Z,1012.83
2017-06-11T07:03:12.359Z,1012.9
2017-06-11T07:03:52.856Z,1012.85
2017-06-11T07:04:33.407Z,1012.86
2017-06-11T07:05:14.073Z,1012.91
2017-06-11T07:05:54.477Z,1012.83
2017-06-11T07:06:35.031Z,1012.83
2017-06-11T07:07:15.589Z,1012.78
2017-06-11T07:07:56.133Z,1012.77
2017-06-11T07:08:36.669Z,1012.74
2017-06-11T07:09:17.183Z,1012.74
2017-06-11T07:09:57.736Z,1012.7
2017-06-11T07:10:38.227Z,1012.71
2017-06-11T07:11:18.770Z,1012.69
2017-06-11T07:11:59.330Z,1012.65
2017-06-11T07:12:39.910Z,1012.64
2017-06-11T07:13:20.437Z,1012.66
2017-06-11T07:14:00.970Z,1012.72
2017-06-11T07:14:41.504Z,1012.65
2017-06-11T07:15:22.030Z,1012.65
2017-06-11T07:16:02.564Z,1012.66
2017-06-11T07:16:43.078Z,1012.62
2017-06-11T07:17:23.610Z,1012.61
2017-06-11T07:18:04.163Z,1012.65
2017-06-11T07:18:44.721Z,1012.63
2017-06-11T07:19:25.295Z,1012.61
2017-06-11T07:20:05.832Z,1012.6
2017-06-11T07:20:46.370Z,1012.64
2017-06-11T07:21:26.903Z,1012.62
2017-06-11T07:22:07.418Z,1012.61
2017-06-11T07:22:47.952Z,1012.56
2017-06-11T07:23:28.501Z,1012.57
2017-06-11T07:24:09.047Z,1012.57
2017-06-11T07:24:49.571Z,1012.55
2017-06-11T07:25:30.145Z,1012.61
2017-06-11T07:26:10.654Z,1012.57
2017-06-11T07:26:51.201Z,1012.56
2017-06-11T07:27:31.706Z,1012.55
2017-06-11T07:28:12.254Z,1012.57
2017-06-11T07:28:52.796Z,1012.55
2017-06-11T07:29:33.350Z,1012.56
2017-06-11T07:30:13.896Z,1012.56
2017-06-11T07:30:54.429Z,1012.57
2017-06-11T07:31:34.977Z,1012.53
2017-06-11T07:32:15.557Z,1012.55
2017-06-11T07:32:56.077Z,1012.54
2017-06-11T07:33:36.614Z,1012.51
2017-06-11T07:34:17.149Z,1012.49
2017-06-11T07:34:57.677Z,1012.5
2017-06-11T07:35:38.229Z,1012.45
2017-06-11T07:36:18.767Z,1012.51
2017-06-11T07:36:59.312Z,1012.46
2017-06-11T07:37:39.848Z,1012.49
2017-06-11T07:38:20.367Z,1012.49
2017-06-11T07:39:00.912Z,1012.46
2017-06-11T07:39:41.430Z,1012.51
2017-06-11T07:40:21.956Z,1012.48
2017-06-11T07:41:02.784Z,1012.5
2017-06-11T07:41:43.715Z,1012.52
2017-06-11T07:42:24.599Z,1012.49
2017-06-11T07:43:05.128Z,1012.49
2017-06-11T07:43:45.634Z,1012.47
2017-06-11T07:44:26.166Z,1012.46
2017-06-11T07:45:06.708Z,1012.48
2017-06-11T07:45:47.262Z,1012.47
2017-06-11T07:46:27.805Z,1012.48
2017-06-11T07:47:08.351Z,1012.47
2017-06-11T07:47:48.883Z,1012.48
2017-06-11T07:48:29.427Z,1012.46
2017-06-11T07:49:09.964Z,1012.44
2017-06-11T07:49:50.523Z,1012.44
2017-06-11T07:50:31.084Z,1012.45
2017-06-11T07:51:11.640Z,1012.46
2017-06-11T07:51:52.182Z,1012.46
2017-06-11T07:52:32.717Z,1012.46
2017-06-11T07:53:13.254Z,1012.45
2017-06-11T07:53:54.422Z,1012.43
2017-06-11T07:54:34.961Z,1012.4
2017-06-11T07:55:15.499Z,1012.46
2017-06-11T07:55:56.053Z,1012.43
2017-06-11T07:56:36.600Z,1012.41
2017-06-11T07:57:17.154Z,1012.44
2017-06-11T07:57:57.720Z,1012.42
2017-06-11T07:58:38.262Z,1012.42
2017-06-11T07:59:18.803Z,1012.4
2017-06-11T07:59:59.340Z,1012.4
2017-06-11T08:00:39.885Z,1012.41
2017-06-11T08:01:20.410Z,1012.37
2017-06-11T08:02:00.963Z,1012.39
2017-06-11T08:02:41.514Z,1012.39
2017-06-11T08:03:22.047Z,1012.35
2017-06-11T08:04:02.588Z,1012.36
2017-06-11T08:04:43.156Z,1012.33
2017-06-11T08:05:23.687Z,1012.37
2017-06-11T08:06:04.217Z,1012.33
2017-06-11T08:06:44.777Z,1012.28
2017-06-11T08:07:25.359Z,1012.27
2017-06-11T08:08:05.883Z,1012.24
2017-06-11T08:08:46.445Z,1012.28
2017-06-11T08:09:27.018Z,1012.26
2017-06-11T08:10:07.540Z,1012.23
2017-06-11T08:10:48.083Z,1012.23
2017-06-11T08:11:28.654Z,1012.2
2017-06-11T08:12:09.186Z,1012.17